Time;durP1;ratioP1;P1;durP2;ratioP2;P2;SDS_P1;SDS_P2;PMS_P1;PMS_P2;Temp;Humidity;BMP_temperature;BMP_pressure;BME280_temperature;BME280_humidity;BME280_pressure;Samples;Min_cycle;Max_cycle;Signal;HPM_P1;HPM_P2
2023/01/02 00:00:42;;;;;;;13.47;8.40;;;14.60;99.90;;;;;;5018836;28;20193;-66
2023/01/02 00:03:08;;;;;;;14.70;8.20;;;14.60;99.90;;;;;;5014568;28;20231;-67
2023/01/02 00:05:35;;;;;;;13.30;8.20;;;14.60;99.90;;;;;;5014903;28;20923;-66
2023/01/02 00:08:00;;;;;;;11.83;7.60;;;14.60;99.90;;;;;;5014925;28;20177;-66
2023/01/02 00:10:26;;;;;;;13.47;7.97;;;14.60;99.90;;;;;;5016463;28;20450;-66
2023/01/02 00:12:52;;;;;;;10.60;8.10;;;14.60;99.90;;;;;;5018427;28;20620;-67
2023/01/02 00:15:17;;;;;;;14.20;8.43;;;14.60;99.90;;;;;;5021461;28;20249;-67
2023/01/02 00:17:43;;;;;;;13.47;8.10;;;14.60;99.90;;;;;;5016023;28;20199;-67
2023/01/02 00:20:09;;;;;;;11.50;8.10;;;14.60;99.90;;;;;;5018878;28;20239;-67
2023/01/02 00:22:34;;;;;;;11.03;7.90;;;14.70;99.90;;;;;;5021687;28;20212;-66
2023/01/02 00:25:00;;;;;;;14.30;7.90;;;14.60;99.90;;;;;;5021240;28;20181;-67
2023/01/02 00:27:25;;;;;;;14.37;7.60;;;14.60;99.90;;;;;;5024162;28;20757;-67
2023/01/02 00:29:51;;;;;;;11.70;6.50;;;14.60;99.90;;;;;;5015806;28;20188;-66
2023/01/02 00:32:17;;;;;;;12.13;6.83;;;14.60;99.90;;;;;;5013354;28;20192;-66
2023/01/02 00:34:42;;;;;;;10.67;7.87;;;14.70;99.90;;;;;;5017759;28;20200;-67
2023/01/02 00:37:08;;;;;;;11.10;7.23;;;14.70;99.90;;;;;;5015144;28;20686;-66
2023/01/02 00:39:33;;;;;;;9.13;6.57;;;14.70;99.90;;;;;;5019235;28;20242;-66
2023/01/02 00:41:59;;;;;;;13.43;7.23;;;14.60;99.90;;;;;;5014249;28;20212;-67
2023/01/02 00:44:24;;;;;;;11.20;6.70;;;14.60;99.90;;;;;;5018715;28;20199;-66
2023/01/02 00:46:50;;;;;;;11.73;7.30;;;14.60;99.90;;;;;;5014049;28;20723;-66
2023/01/02 00:49:16;;;;;;;8.90;6.20;;;14.70;99.90;;;;;;5017454;28;20374;-66
2023/01/02 00:51:41;;;;;;;10.50;6.53;;;14.70;99.90;;;;;;5020086;28;20212;-66
2023/01/02 00:54:07;;;;;;;7.77;6.47;;;14.70;99.90;;;;;;5015843;28;20191;-66
2023/01/02 00:56:32;;;;;;;13.73;7.80;;;14.70;99.90;;;;;;5013276;28;20240;-67
2023/01/02 00:58:58;;;;;;;13.20;7.40;;;14.70;99.90;;;;;;5018642;28;20192;-67
2023/01/02 01:01:23;;;;;;;7.20;6.37;;;14.60;99.90;;;;;;5017760;28;20753;-67
2023/01/02 01:03:49;;;;;;;11.47;7.37;;;14.60;99.90;;;;;;5019244;28;20549;-67
2023/01/02 01:06:14;;;;;;;15.93;7.03;;;14.70;99.90;;;;;;5013741;28;20258;-67
2023/01/02 01:08:40;;;;;;;12.20;6.57;;;14.70;99.90;;;;;;5013042;28;20184;-66
2023/01/02 01:11:09;;;;;;;18.20;6.70;;;14.70;99.90;;;;;;5010817;28;20181;-67
2023/01/02 01:13:35;;;;;;;11.20;6.93;;;14.70;99.90;;;;;;5018449;28;20188;-66
2023/01/02 01:16:09;;;;;;;9.23;6.90;;;14.70;99.90;;;;;;5012869;28;21027;-66
2023/01/02 01:18:35;;;;;;;11.13;6.83;;;14.70;99.90;;;;;;5017575;28;20665;-67
2023/01/02 01:21:18;;;;;;;15.93;9.30;;;14.70;99.90;;;;;;5012453;28;20486;-67
2023/01/02 01:23:49;;;;;;;13.53;7.20;;;14.60;99.90;;;;;;5017651;28;20859;-66
2023/01/02 01:26:15;;;;;;;13.40;7.77;;;14.60;99.90;;;;;;5022471;28;20900;-66
2023/01/02 01:28:40;;;;;;;15.87;7.03;;;14.60;99.90;;;;;;5023667;28;20431;-66
2023/01/02 01:31:09;;;;;;;10.77;7.10;;;14.60;99.90;;;;;;5014649;28;20682;-66
2023/01/02 01:33:35;;;;;;;14.83;7.00;;;14.60;99.90;;;;;;5017833;28;20198;-67
2023/01/02 01:36:03;;;;;;;11.30;6.50;;;14.60;99.90;;;;;;5017829;28;20451;-66
2023/01/02 01:38:30;;;;;;;11.27;7.07;;;14.60;99.90;;;;;;5019253;28;20431;-66
2023/01/02 01:40:56;;;;;;;9.00;6.03;;;14.60;99.90;;;;;;5018800;28;20431;-66
2023/01/02 01:43:45;;;;;;;8.30;6.50;;;14.60;99.90;;;;;;5019610;28;20868;-67
2023/01/02 01:46:34;;;;;;;10.53;6.60;;;14.60;99.90;;;;;;5015702;28;20266;-66
2023/01/02 01:49:25;;;;;;;10.63;6.63;;;14.60;99.90;;;;;;5012662;28;20446;-66
2023/01/02 01:52:00;;;;;;;10.60;6.40;;;14.60;99.90;;;;;;5012978;28;21114;-66
2023/01/02 01:54:37;;;;;;;15.23;5.73;;;14.60;99.90;;;;;;5015811;28;20496;-66
2023/01/02 01:57:11;;;;;;;14.30;8.73;;;14.60;99.90;;;;;;5017522;28;20510;-67
2023/01/02 01:59:38;;;;;;;19.20;9.10;;;14.60;99.90;;;;;;5013243;28;20962;-66
2023/01/02 02:02:04;;;;;;;15.47;8.53;;;14.60;99.90;;;;;;5011607;28;20463;-66
2023/01/02 02:04:30;;;;;;;10.03;7.07;;;14.60;99.90;;;;;;5012153;28;20819;-66
2023/01/02 02:06:55;;;;;;;13.47;8.53;;;14.60;99.90;;;;;;5016295;28;20435;-66
2023/01/02 02:09:35;;;;;;;9.93;7.30;;;14.60;99.90;;;;;;5013275;28;20255;-67
2023/01/02 02:12:02;;;;;;;10.00;7.60;;;14.60;99.90;;;;;;5012029;28;20218;-66
2023/01/02 02:14:28;;;;;;;11.20;6.90;;;14.60;99.90;;;;;;5015167;28;20444;-66
2023/01/02 02:17:07;;;;;;;11.80;6.77;;;14.60;99.90;;;;;;5014533;28;20579;-67
2023/01/02 02:19:51;;;;;;;12.60;6.93;;;14.60;99.90;;;;;;5011173;28;20189;-67
2023/01/02 02:22:48;;;;;;;10.50;6.83;;;14.50;99.90;;;;;;5016498;28;21145;-66
2023/01/02 02:25:52;;;;;;;10.07;7.10;;;14.50;99.90;;;;;;5016670;28;20431;-66
2023/01/02 02:28:55;;;;;;;12.63;6.57;;;14.50;99.90;;;;;;4992825;28;20411;-66
2023/01/02 02:31:43;;;;;;;11.43;6.27;;;14.50;99.90;;;;;;5015140;28;20769;-67
2023/01/02 02:34:17;;;;;;;11.73;6.00;;;14.50;99.90;;;;;;5009740;28;20770;-67
2023/01/02 02:37:07;;;;;;;10.20;6.00;;;14.50;99.90;;;;;;5013702;28;20454;-67
2023/01/02 02:40:01;;;;;;;7.40;4.93;;;14.50;99.90;;;;;;5011335;28;20554;-66
2023/01/02 02:42:45;;;;;;;12.10;6.97;;;14.50;99.90;;;;;;5012540;28;20525;-67
2023/01/02 02:45:41;;;;;;;10.20;5.60;;;14.50;99.90;;;;;;5010340;28;20447;-66
2023/01/02 02:48:16;;;;;;;9.30;6.00;;;14.50;99.90;;;;;;5008701;28;20435;-66
2023/01/02 02:50:52;;;;;;;11.33;4.93;;;14.50;99.90;;;;;;5013695;28;20911;-66
2023/01/02 02:53:24;;;;;;;11.63;5.20;;;14.50;99.90;;;;;;5012987;28;21105;-66
2023/01/02 02:55:52;;;;;;;11.83;5.10;;;14.50;99.90;;;;;;5012200;28;20467;-66
2023/01/02 02:58:20;;;;;;;8.73;4.40;;;14.50;99.90;;;;;;5008003;28;21010;-66
2023/01/02 03:00:46;;;;;;;9.50;5.37;;;14.60;99.90;;;;;;5014452;28;20554;-66
2023/01/02 03:03:22;;;;;;;9.10;5.03;;;14.60;99.90;;;;;;5014396;28;20510;-66
2023/01/02 03:06:27;;;;;;;8.43;4.67;;;14.60;99.90;;;;;;5031532;28;20610;-66
2023/01/02 03:09:16;;;;;;;8.00;4.80;;;14.60;99.90;;;;;;5010527;28;20443;-66
2023/01/02 03:11:54;;;;;;;8.80;5.40;;;14.60;99.90;;;;;;5008880;28;20427;-66
2023/01/02 03:14:44;;;;;;;6.80;4.90;;;14.70;99.90;;;;;;5009372;28;20434;-66
2023/01/02 03:17:24;;;;;;;8.40;4.93;;;14.70;99.90;;;;;;5009564;28;21097;-67
2023/01/02 03:19:57;;;;;;;7.67;4.73;;;14.60;99.90;;;;;;5014700;28;20450;-67
2023/01/02 03:22:32;;;;;;;6.57;4.27;;;14.60;99.90;;;;;;5017303;28;20906;-67
2023/01/02 03:24:58;;;;;;;6.93;4.60;;;14.60;99.90;;;;;;5015307;28;20835;-66
2023/01/02 03:27:28;;;;;;;7.00;4.17;;;14.60;99.90;;;;;;5013172;28;20489;-67
2023/01/02 03:30:05;;;;;;;11.90;5.00;;;14.70;99.90;;;;;;5013845;28;20435;-67
2023/01/02 03:32:35;;;;;;;6.13;4.10;;;14.70;99.90;;;;;;5012451;28;20467;-66
2023/01/02 03:35:05;;;;;;;12.80;4.70;;;14.70;99.90;;;;;;5010901;28;20447;-66
2023/01/02 03:37:34;;;;;;;11.13;4.70;;;14.70;99.90;;;;;;5010093;28;20471;-66
2023/01/02 03:40:07;;;;;;;8.27;4.73;;;14.70;99.90;;;;;;5010769;28;20443;-67
2023/01/02 03:42:57;;;;;;;7.90;4.20;;;14.70;99.90;;;;;;5008330;28;20776;-67
2023/01/02 03:45:30;;;;;;;8.33;5.20;;;14.70;99.90;;;;;;5008773;28;20444;-67
2023/01/02 03:48:08;;;;;;;6.40;4.23;;;14.70;99.90;;;;;;5011181;28;20419;-66
2023/01/02 03:50:54;;;;;;;5.80;3.93;;;14.70;99.90;;;;;;5020860;28;20451;-66
2023/01/02 03:53:20;;;;;;;13.83;4.70;;;14.80;99.90;;;;;;5015333;28;20452;-66
2023/01/02 03:55:55;;;;;;;8.53;4.57;;;14.70;99.90;;;;;;5011006;28;20540;-67
2023/01/02 03:58:45;;;;;;;6.80;3.80;;;14.70;99.90;;;;;;5013212;28;20838;-67
2023/01/02 04:01:20;;;;;;;11.67;5.13;;;14.80;99.90;;;;;;5015990;28;20474;-67
2023/01/02 04:03:55;;;;;;;7.90;4.00;;;14.80;99.90;;;;;;5018366;28;20478;-67
2023/01/02 04:06:29;;;;;;;4.90;4.10;;;14.80;99.90;;;;;;5018152;28;20967;-67
2023/01/02 04:09:08;;;;;;;6.77;4.80;;;14.80;99.90;;;;;;5013126;28;20544;-67
2023/01/02 04:11:37;;;;;;;6.67;4.07;;;14.80;99.90;;;;;;5013408;28;20457;-67
2023/01/02 04:14:12;;;;;;;6.53;3.60;;;14.80;99.90;;;;;;5013125;28;20488;-66
2023/01/02 04:16:39;;;;;;;6.93;5.50;;;14.80;99.90;;;;;;5014138;28;20880;-66
2023/01/02 04:19:11;;;;;;;3.90;3.07;;;14.80;99.90;;;;;;5017050;28;21017;-66
2023/01/02 04:21:39;;;;;;;7.37;3.80;;;14.80;99.90;;;;;;5015242;28;20490;-66
2023/01/02 04:24:16;;;;;;;7.73;3.80;;;14.90;99.90;;;;;;5012119;28;20448;-66
2023/01/02 04:26:49;;;;;;;7.33;3.90;;;14.90;99.90;;;;;;5009465;28;20477;-66
2023/01/02 04:29:14;;;;;;;8.20;3.90;;;14.90;99.90;;;;;;5011361;28;20442;-67
2023/01/02 04:31:49;;;;;;;4.77;3.80;;;14.90;99.90;;;;;;5014741;28;20862;-66
2023/01/02 04:34:16;;;;;;;5.83;3.63;;;14.90;99.90;;;;;;5014812;28;20206;-66
2023/01/02 04:36:42;;;;;;;6.27;3.43;;;15.00;99.90;;;;;;5015679;28;20481;-66
2023/01/02 04:39:08;;;;;;;8.20;3.80;;;15.00;99.90;;;;;;5010825;28;20458;-66
2023/01/02 04:41:36;;;;;;;5.70;4.30;;;15.00;99.90;;;;;;5016289;28;20467;-67
2023/01/02 04:44:02;;;;;;;5.57;4.50;;;15.00;99.90;;;;;;5011227;28;20439;-67
2023/01/02 04:46:28;;;;;;;9.63;4.20;;;15.00;99.90;;;;;;5015231;28;20883;-67
2023/01/02 04:48:55;;;;;;;6.93;4.00;;;15.00;99.90;;;;;;5018101;28;20187;-66
2023/01/02 04:51:21;;;;;;;5.63;3.60;;;15.00;99.90;;;;;;5014155;28;20843;-67
2023/01/02 04:53:47;;;;;;;7.37;4.40;;;14.90;99.90;;;;;;5017098;28;20504;-67
2023/01/02 04:56:13;;;;;;;10.90;4.70;;;14.90;99.90;;;;;;5011916;28;20553;-67
2023/01/02 04:58:39;;;;;;;4.80;3.43;;;14.90;99.90;;;;;;5014260;28;20445;-67
2023/01/02 05:01:09;;;;;;;6.97;4.43;;;14.90;99.90;;;;;;5012798;28;20408;-67
2023/01/02 05:03:41;;;;;;;5.00;3.90;;;14.90;99.90;;;;;;5015253;28;20597;-67
2023/01/02 05:06:07;;;;;;;12.90;4.80;;;14.90;99.90;;;;;;5012002;28;20458;-67
2023/01/02 05:08:32;;;;;;;13.60;4.27;;;14.90;99.90;;;;;;5015750;28;20967;-67
2023/01/02 05:11:11;;;;;;;7.10;4.10;;;14.90;99.90;;;;;;5015741;28;20277;-67
2023/01/02 05:13:37;;;;;;;7.90;4.50;;;14.80;99.90;;;;;;5015388;28;20529;-67
2023/01/02 05:16:02;;;;;;;6.07;4.40;;;14.80;99.90;;;;;;5012834;28;21143;-66
2023/01/02 05:18:29;;;;;;;12.50;4.20;;;14.80;99.90;;;;;;5015234;28;20187;-67
2023/01/02 05:21:02;;;;;;;11.33;3.63;;;14.80;99.90;;;;;;5017090;28;20280;-67
2023/01/02 05:26:12;;;;;;;9.13;4.13;;;14.80;99.90;;;;;;5010581;28;20482;-66
2023/01/02 05:28:38;;;;;;;8.23;3.80;;;14.70;99.90;;;;;;5011417;28;20554;-66
2023/01/02 05:31:03;;;;;;;8.00;4.60;;;14.70;99.90;;;;;;5014038;28;20975;-67
2023/01/02 05:33:29;;;;;;;5.50;4.07;;;14.70;99.90;;;;;;5014976;28;20201;-66
2023/01/02 05:35:55;;;;;;;4.90;4.17;;;14.70;99.90;;;;;;5017041;28;20604;-66
2023/01/02 05:38:20;;;;;;;9.57;4.60;;;14.70;99.90;;;;;;5016605;28;20211;-66
2023/01/02 05:40:46;;;;;;;5.27;3.43;;;14.70;99.90;;;;;;5011587;28;20274;-66
2023/01/02 05:43:11;;;;;;;6.77;4.20;;;14.70;99.90;;;;;;5012065;28;20270;-66
2023/01/02 05:45:37;;;;;;;5.60;4.10;;;14.60;99.90;;;;;;5007609;28;20374;-67
2023/01/02 05:48:02;;;;;;;8.47;4.80;;;14.60;99.90;;;;;;5015075;28;20669;-67
2023/01/02 05:50:28;;;;;;;7.53;4.63;;;14.60;99.90;;;;;;5017546;28;20662;-67
2023/01/02 05:52:54;;;;;;;6.50;4.17;;;14.60;99.90;;;;;;5015148;28;20219;-67
2023/01/02 05:55:20;;;;;;;7.00;4.00;;;14.60;99.90;;;;;;5014285;28;20763;-67
2023/01/02 05:57:46;;;;;;;9.50;5.20;;;14.50;99.90;;;;;;5011562;28;20453;-67
2023/01/02 06:00:12;;;;;;;9.90;4.00;;;14.50;99.90;;;;;;5011922;28;20300;-67
2023/01/02 06:02:37;;;;;;;5.27;3.70;;;14.50;99.90;;;;;;5007867;28;20221;-67
2023/01/02 06:05:04;;;;;;;8.53;4.40;;;14.40;99.90;;;;;;5017569;28;20445;-66
2023/01/02 06:07:29;;;;;;;6.73;4.00;;;14.40;99.90;;;;;;5011579;28;20201;-67
2023/01/02 06:09:55;;;;;;;6.67;4.27;;;14.40;99.90;;;;;;5015169;28;20450;-67
2023/01/02 06:12:20;;;;;;;6.87;4.10;;;14.40;99.90;;;;;;5013125;28;20196;-67
2023/01/02 06:14:46;;;;;;;6.50;3.90;;;14.30;99.90;;;;;;5010869;28;20192;-66
2023/01/02 06:17:11;;;;;;;6.97;4.40;;;14.30;99.90;;;;;;5011890;28;20214;-66
2023/01/02 06:19:37;;;;;;;6.37;4.37;;;14.30;99.90;;;;;;5012607;28;20475;-66
2023/01/02 06:22:02;;;;;;;8.53;5.10;;;14.30;99.90;;;;;;5009456;28;20265;-66
2023/01/02 06:24:28;;;;;;;6.80;4.50;;;14.30;99.90;;;;;;5009583;28;20712;-66
2023/01/02 06:26:54;;;;;;;7.63;4.50;;;14.20;99.90;;;;;;5008906;28;20212;-66
2023/01/02 06:29:20;;;;;;;7.30;4.77;;;14.20;99.90;;;;;;5011494;28;20949;-67
2023/01/02 06:31:46;;;;;;;7.10;4.70;;;14.20;99.90;;;;;;5014628;28;20687;-66
2023/01/02 06:34:11;;;;;;;6.00;4.60;;;14.10;99.90;;;;;;5002945;28;20526;-66
2023/01/02 06:36:37;;;;;;;6.77;4.83;;;14.10;99.90;;;;;;5005523;28;20208;-66
2023/01/02 06:39:03;;;;;;;5.70;4.17;;;14.10;99.90;;;;;;5010266;28;20189;-66
2023/01/02 06:41:28;;;;;;;16.33;4.80;;;14.10;99.90;;;;;;5012640;28;20209;-66
2023/01/02 06:43:54;;;;;;;5.80;4.23;;;14.10;99.90;;;;;;5007571;28;20466;-65
2023/01/02 06:46:22;;;;;;;6.90;6.20;;;14.10;99.90;;;;;;5014598;28;20200;-66
2023/01/02 06:48:48;;;;;;;7.73;5.83;;;14.10;99.90;;;;;;5018659;28;20177;-66
2023/01/02 06:51:17;;;;;;;9.77;5.27;;;14.10;99.90;;;;;;5015028;28;20443;-67
2023/01/02 06:53:43;;;;;;;5.30;4.23;;;14.10;99.90;;;;;;5013209;28;20529;-66
2023/01/02 06:56:09;;;;;;;5.90;4.40;;;14.10;99.90;;;;;;5012004;28;20478;-66
2023/01/02 06:58:37;;;;;;;7.93;5.10;;;14.10;99.90;;;;;;5013175;28;20441;-67
2023/01/02 07:01:14;;;;;;;11.33;4.43;;;14.10;99.90;;;;;;5011767;28;20444;-65
2023/01/02 07:03:40;;;;;;;7.23;4.83;;;14.10;99.90;;;;;;5015115;28;20822;-65
2023/01/02 07:06:08;;;;;;;9.23;5.30;;;14.10;99.90;;;;;;5010986;28;20443;-65
2023/01/02 07:08:34;;;;;;;7.77;4.93;;;14.10;99.90;;;;;;5013170;28;20871;-66
2023/01/02 07:11:12;;;;;;;7.43;4.50;;;14.10;99.90;;;;;;5009878;28;20538;-66
2023/01/02 07:13:39;;;;;;;6.57;4.40;;;14.10;99.90;;;;;;5011380;28;20436;-66
2023/01/02 07:16:07;;;;;;;9.23;4.37;;;14.10;99.90;;;;;;5012734;28;21367;-67
2023/01/02 07:18:34;;;;;;;9.23;4.90;;;14.10;99.90;;;;;;5012474;28;20442;-67
2023/01/02 07:21:00;;;;;;;8.93;4.83;;;14.10;99.90;;;;;;5012496;28;20893;-67
2023/01/02 07:23:26;;;;;;;11.17;5.00;;;14.10;99.90;;;;;;5009569;28;20528;-68
2023/01/02 07:25:54;;;;;;;8.63;4.30;;;14.10;99.90;;;;;;5017978;28;20641;-67
2023/01/02 07:28:19;;;;;;;7.70;4.43;;;14.10;99.90;;;;;;5015394;28;20447;-66
2023/01/02 07:30:45;;;;;;;7.50;4.50;;;14.10;99.90;;;;;;5017155;28;21018;-66
2023/01/02 07:33:10;;;;;;;7.50;4.90;;;14.10;99.90;;;;;;5016376;28;20256;-66
2023/01/02 07:35:36;;;;;;;8.60;5.87;;;14.10;99.90;;;;;;5018414;28;20204;-66
2023/01/02 07:38:01;;;;;;;11.97;5.23;;;14.10;99.90;;;;;;5016501;28;20201;-66
2023/01/02 07:40:27;;;;;;;6.03;4.60;;;14.10;99.90;;;;;;5015380;28;20217;-66
2023/01/02 07:42:53;;;;;;;10.03;5.47;;;14.10;99.90;;;;;;5014163;28;20212;-66
2023/01/02 07:45:19;;;;;;;8.80;5.10;;;14.10;99.90;;;;;;5014833;28;20638;-68
2023/01/02 07:47:44;;;;;;;8.53;4.83;;;14.10;99.90;;;;;;5014025;28;20572;-67
2023/01/02 07:50:10;;;;;;;9.07;5.57;;;14.10;99.90;;;;;;5013473;28;20757;-66
2023/01/02 07:52:35;;;;;;;7.97;5.30;;;14.10;99.90;;;;;;5015005;28;20342;-66
2023/01/02 07:55:01;;;;;;;6.53;4.73;;;14.00;99.90;;;;;;5011234;28;20203;-66
2023/01/02 07:57:30;;;;;;;7.47;5.10;;;14.00;99.90;;;;;;5012900;28;20284;-65
2023/01/02 07:59:56;;;;;;;11.53;5.13;;;14.10;99.90;;;;;;5015604;28;20181;-65
2023/01/02 08:02:21;;;;;;;8.57;5.20;;;14.10;99.90;;;;;;5012642;28;20471;-65
2023/01/02 08:04:47;;;;;;;8.23;4.83;;;14.10;99.90;;;;;;5008910;28;20920;-67
2023/01/02 08:07:13;;;;;;;7.20;4.93;;;14.10;99.90;;;;;;5013630;28;20584;-66
2023/01/02 08:09:38;;;;;;;11.87;5.20;;;14.10;99.90;;;;;;5017380;28;20589;-67
2023/01/02 08:12:04;;;;;;;9.87;4.70;;;14.10;99.90;;;;;;5008174;28;20259;-67
2023/01/02 08:14:30;;;;;;;8.03;5.20;;;14.10;99.90;;;;;;5008154;28;20191;-68
2023/01/02 08:16:55;;;;;;;10.17;5.03;;;14.10;99.90;;;;;;5011355;28;20196;-68
2023/01/02 08:19:21;;;;;;;7.30;5.37;;;14.10;99.90;;;;;;5009801;28;20602;-68
2023/01/02 08:21:46;;;;;;;7.23;4.53;;;14.10;99.90;;;;;;5005067;28;20226;-68
2023/01/02 08:24:12;;;;;;;9.97;5.73;;;14.10;99.90;;;;;;5009239;28;20590;-68
2023/01/02 08:26:37;;;;;;;7.50;5.10;;;14.20;99.90;;;;;;5006280;28;20255;-68
2023/01/02 08:29:03;;;;;;;8.90;5.30;;;14.20;99.90;;;;;;5012767;28;20196;-67
2023/01/02 08:31:29;;;;;;;10.97;5.70;;;14.20;99.90;;;;;;5012263;28;20268;-67
2023/01/02 08:33:54;;;;;;;7.90;5.00;;;14.20;99.90;;;;;;5012846;28;20200;-68
2023/01/02 08:36:20;;;;;;;6.37;5.10;;;14.20;99.90;;;;;;5011031;28;20291;-67
2023/01/02 08:38:45;;;;;;;9.53;5.17;;;14.30;99.90;;;;;;5007805;28;20954;-67
2023/01/02 08:41:11;;;;;;;12.17;5.00;;;14.30;99.90;;;;;;5011394;28;20718;-66
2023/01/02 08:43:37;;;;;;;10.17;5.70;;;14.30;99.90;;;;;;5017165;28;20402;-66
2023/01/02 08:46:04;;;;;;;13.80;6.50;;;14.40;99.90;;;;;;5014488;28;20211;-66
2023/01/02 08:48:29;;;;;;;6.20;4.50;;;14.40;99.90;;;;;;5018332;28;20192;-65
2023/01/02 08:50:55;;;;;;;9.53;5.40;;;14.40;99.90;;;;;;5016634;28;20434;-66
2023/01/02 08:53:20;;;;;;;6.97;5.27;;;14.50;99.90;;;;;;5009147;28;20195;-66
2023/01/02 08:55:46;;;;;;;9.20;5.47;;;14.50;99.90;;;;;;5011912;28;20211;-66
2023/01/02 08:58:11;;;;;;;8.20;6.27;;;14.60;99.90;;;;;;5014718;28;20183;-66
2023/01/02 09:00:37;;;;;;;10.07;5.60;;;14.70;99.90;;;;;;5018891;28;20201;-66
2023/01/02 09:03:03;;;;;;;7.77;5.33;;;14.70;99.90;;;;;;5019182;28;20204;-66
2023/01/02 09:05:29;;;;;;;6.77;4.47;;;14.70;99.90;;;;;;5016467;28;20197;-66
2023/01/02 09:07:56;;;;;;;10.93;5.00;;;14.70;99.90;;;;;;5011418;28;20181;-66
2023/01/02 09:10:21;;;;;;;10.60;4.27;;;14.70;99.90;;;;;;5014027;28;20439;-66
2023/01/02 09:12:47;;;;;;;6.23;4.27;;;14.80;99.90;;;;;;5009523;28;20430;-66
2023/01/02 09:15:12;;;;;;;11.10;6.30;;;14.80;99.90;;;;;;5013006;28;20952;-66
2023/01/02 09:17:38;;;;;;;10.50;6.83;;;14.90;99.90;;;;;;5014384;28;20242;-67
2023/01/02 09:20:04;;;;;;;8.93;5.13;;;14.90;99.90;;;;;;5017898;28;20187;-66
2023/01/02 09:22:30;;;;;;;7.53;4.27;;;14.90;99.90;;;;;;5007904;28;20209;-66
2023/01/02 09:24:55;;;;;;;10.97;5.60;;;15.00;99.90;;;;;;5012565;28;20515;-64
2023/01/02 09:27:21;;;;;;;8.93;5.97;;;15.00;99.90;;;;;;5012603;28;20204;-65
2023/01/02 09:29:47;;;;;;;9.23;5.80;;;15.00;99.90;;;;;;5011661;28;20686;-65
2023/01/02 09:32:12;;;;;;;8.10;5.20;;;15.00;99.90;;;;;;5010010;28;20204;-65
2023/01/02 09:34:38;;;;;;;7.43;4.93;;;15.00;99.90;;;;;;5009663;28;20665;-65
2023/01/02 09:37:03;;;;;;;6.50;4.60;;;15.10;99.90;;;;;;5001814;28;20214;-64
2023/01/02 09:39:29;;;;;;;7.27;3.73;;;15.10;99.90;;;;;;5000375;28;21042;-65
2023/01/02 09:41:58;;;;;;;9.67;4.57;;;15.10;99.90;;;;;;5002727;28;20212;-66
2023/01/02 09:44:42;;;;;;;7.73;3.70;;;15.20;99.90;;;;;;5015076;28;20259;-65
2023/01/02 09:47:10;;;;;;;6.10;4.30;;;15.20;99.90;;;;;;5013394;28;20548;-65
2023/01/02 09:49:46;;;;;;;5.30;3.47;;;15.20;99.90;;;;;;5010956;28;20500;-64
2023/01/02 09:52:19;;;;;;;5.53;3.90;;;15.20;99.90;;;;;;5010306;28;21086;-64
2023/01/02 09:54:45;;;;;;;5.40;3.90;;;15.20;99.90;;;;;;5011390;28;20504;-64
2023/01/02 09:57:42;;;;;;;6.73;3.70;;;15.30;99.90;;;;;;5001690;28;20637;-64
2023/01/02 10:00:25;;;;;;;6.90;4.00;;;15.20;99.90;;;;;;5010403;28;20180;-64
2023/01/02 10:03:10;;;;;;;8.57;3.90;;;15.20;99.90;;;;;;5013564;28;21005;-65
2023/01/02 10:05:54;;;;;;;5.90;3.37;;;15.20;99.90;;;;;;5010223;28;20447;-64
2023/01/02 10:08:57;;;;;;;8.73;3.10;;;15.10;99.90;;;;;;5006966;28;20450;-65
2023/01/02 10:11:40;;;;;;;6.90;3.27;;;15.10;99.90;;;;;;4995763;28;20467;-65
2023/01/02 10:14:25;;;;;;;6.50;3.20;;;15.10;99.90;;;;;;5002973;28;20895;-67
2023/01/02 10:16:55;;;;;;;6.67;3.47;;;15.10;99.90;;;;;;4999722;28;20573;-65
2023/01/02 10:19:44;;;;;;;6.57;3.30;;;15.20;99.90;;;;;;4990704;28;20458;-64
2023/01/02 10:22:16;;;;;;;5.23;2.83;;;15.20;99.90;;;;;;5000533;28;20477;-64
2023/01/02 10:24:50;;;;;;;4.53;3.30;;;15.20;99.90;;;;;;5007271;28;20867;-64
2023/01/02 10:27:19;;;;;;;5.53;3.30;;;15.30;99.90;;;;;;5005131;28;20573;-65
2023/01/02 10:30:01;;;;;;;5.30;3.20;;;15.30;99.90;;;;;;5011373;28;20420;-65
2023/01/02 10:32:29;;;;;;;10.07;3.40;;;15.40;99.90;;;;;;5009184;28;20439;-65
2023/01/02 10:35:07;;;;;;;4.37;3.03;;;15.40;99.90;;;;;;5008679;28;20447;-64
2023/01/02 10:37:34;;;;;;;10.07;3.07;;;15.50;99.90;;;;;;5010552;28;20446;-65
2023/01/02 10:40:00;;;;;;;6.83;3.03;;;15.40;99.90;;;;;;5014866;28;20875;-64
2023/01/02 10:42:25;;;;;;;5.80;3.40;;;15.40;99.90;;;;;;5016291;28;20512;-65
2023/01/02 10:44:51;;;;;;;12.00;3.53;;;15.40;99.90;;;;;;5014736;28;20647;-65
2023/01/02 10:47:35;;;;;;;6.87;3.37;;;15.40;99.90;;;;;;5015401;28;20350;-65
2023/01/02 10:50:07;;;;;;;5.77;3.00;;;15.40;99.90;;;;;;5012092;28;20716;-64
2023/01/02 10:52:38;;;;;;;7.50;3.60;;;15.50;99.90;;;;;;5014207;28;20439;-64
2023/01/02 10:55:04;;;;;;;10.63;3.40;;;15.60;99.90;;;;;;5014522;28;20482;-65
2023/01/02 10:57:45;;;;;;;5.33;3.47;;;15.70;99.90;;;;;;5014573;28;20478;-64
2023/01/02 11:00:16;;;;;;;5.33;3.53;;;15.80;99.90;;;;;;5016993;28;20807;-64
2023/01/02 11:02:48;;;;;;;5.60;4.00;;;15.90;99.90;;;;;;5017190;28;20971;-64
2023/01/02 11:05:25;;;;;;;9.60;3.60;;;16.00;99.90;;;;;;5019169;28;20426;-64
2023/01/02 11:07:52;;;;;;;4.80;3.20;;;16.10;99.90;;;;;;5015550;28;20426;-65
2023/01/02 11:10:35;;;;;;;7.90;3.80;;;16.10;99.90;;;;;;5018088;28;20534;-65
2023/01/02 11:13:02;;;;;;;6.60;3.60;;;16.10;99.90;;;;;;5015156;28;20442;-65
2023/01/02 11:15:29;;;;;;;9.37;3.43;;;16.10;99.90;;;;;;5018330;28;20435;-65
2023/01/02 11:17:57;;;;;;;10.90;3.63;;;16.20;99.90;;;;;;5014996;28;20447;-64
2023/01/02 11:20:25;;;;;;;10.17;3.37;;;16.20;99.90;;;;;;5016260;28;20443;-64
2023/01/02 11:22:53;;;;;;;5.70;3.53;;;16.30;99.90;;;;;;5011982;28;20487;-64
2023/01/02 11:25:25;;;;;;;8.40;4.57;;;16.30;99.90;;;;;;5016616;28;20420;-64
2023/01/02 11:27:54;;;;;;;7.80;3.23;;;16.30;99.90;;;;;;5013813;28;21185;-64
2023/01/02 11:30:26;;;;;;;7.13;3.77;;;16.40;99.90;;;;;;5021732;28;20517;-64
2023/01/02 11:33:16;;;;;;;14.17;6.53;;;16.50;99.90;;;;;;5020188;28;20419;-65
2023/01/02 11:35:55;;;;;;;6.70;3.73;;;16.50;99.90;;;;;;5024165;28;20908;-65
2023/01/02 11:38:26;;;;;;;7.40;3.57;;;16.60;99.90;;;;;;5015868;28;20423;-64
2023/01/02 11:40:58;;;;;;;9.27;3.90;;;16.60;99.90;;;;;;5013040;28;20450;-65
2023/01/02 11:43:49;;;;;;;8.20;3.53;;;16.70;99.90;;;;;;5023200;28;20911;-65
2023/01/02 11:46:25;;;;;;;6.83;3.43;;;16.80;99.90;;;;;;5017325;28;20482;-64
2023/01/02 11:48:54;;;;;;;8.23;3.80;;;16.70;99.90;;;;;;5020949;28;20794;-65
2023/01/02 11:51:20;;;;;;;5.17;3.30;;;16.70;99.90;;;;;;5018042;28;20454;-64
2023/01/02 11:53:50;;;;;;;12.20;4.97;;;16.80;99.90;;;;;;5021300;28;20521;-65
2023/01/02 11:56:38;;;;;;;4.67;3.13;;;16.80;99.90;;;;;;5012438;28;20671;-65
2023/01/02 11:59:16;;;;;;;7.33;3.60;;;17.00;99.90;;;;;;5014429;28;20427;-65
2023/01/02 12:02:02;;;;;;;11.53;4.10;;;17.20;99.90;;;;;;5019933;28;20561;-64
2023/01/02 12:04:28;;;;;;;9.50;4.40;;;17.40;99.90;;;;;;5014475;28;20432;-65
2023/01/02 12:07:14;;;;;;;12.63;3.83;;;17.40;99.90;;;;;;5014043;28;20466;-65
2023/01/02 12:10:00;;;;;;;15.60;3.57;;;17.50;99.90;;;;;;5005366;28;20189;-65
2023/01/02 12:12:58;;;;;;;10.47;3.67;;;17.50;99.90;;;;;;5016493;28;20446;-65
2023/01/02 12:15:33;;;;;;;7.47;3.40;;;17.40;99.90;;;;;;4998543;28;20428;-64
2023/01/02 12:18:37;;;;;;;10.90;3.33;;;17.20;99.90;;;;;;5021088;28;20434;-65
2023/01/02 12:21:29;;;;;;;6.13;3.60;;;17.10;99.90;;;;;;5019601;28;20460;-65
2023/01/02 12:24:30;;;;;;;6.23;3.27;;;17.00;99.90;;;;;;4999867;28;20432;-64
2023/01/02 12:27:09;;;;;;;6.63;3.10;;;16.80;99.90;;;;;;4992719;28;20456;-64
2023/01/02 12:29:56;;;;;;;12.17;3.90;;;16.80;99.90;;;;;;5016777;28;20411;-65
2023/01/02 12:32:33;;;;;;;7.63;3.37;;;16.70;99.90;;;;;;5014291;28;20443;-64
2023/01/02 12:35:02;;;;;;;9.57;4.47;;;16.70;99.90;;;;;;5018019;28;20435;-65
2023/01/02 12:37:41;;;;;;;8.73;3.47;;;16.60;99.90;;;;;;5011939;28;20462;-64
2023/01/02 12:40:25;;;;;;;8.67;4.13;;;16.60;99.90;;;;;;5020591;28;20525;-65
2023/01/02 12:43:12;;;;;;;5.97;3.10;;;16.50;99.90;;;;;;5018775;28;20475;-65
2023/01/02 12:46:01;;;;;;;6.30;3.37;;;16.60;99.90;;;;;;5015400;28;20565;-64
2023/01/02 12:48:59;;;;;;;6.47;4.53;;;16.50;99.90;;;;;;5016851;28;20414;-64
2023/01/02 12:51:25;;;;;;;9.30;3.90;;;16.50;99.90;;;;;;4970398;28;1051139;-64
2023/01/02 12:54:10;;;;;;;11.40;5.10;;;16.50;99.90;;;;;;5021062;28;20239;-64
2023/01/02 12:56:59;;;;;;;7.33;3.40;;;16.40;99.90;;;;;;5016522;28;20208;-64
2023/01/02 12:59:47;;;;;;;10.50;3.83;;;16.50;99.90;;;;;;5019807;28;20428;-65
2023/01/02 13:02:36;;;;;;;10.10;4.10;;;16.40;99.90;;;;;;5019405;28;20817;-65
2023/01/02 13:05:13;;;;;;;8.50;3.63;;;16.50;99.90;;;;;;5012459;28;20435;-65
2023/01/02 13:07:49;;;;;;;8.97;3.40;;;16.40;99.90;;;;;;5013454;28;20423;-64